Time;durP1;ratioP1;P1;durP2;ratioP2;P2;SDS_P1;SDS_P2;PMS_P1;PMS_P2;Temp;Humidity;BMP_temperature;BMP_pressure;BME280_temperature;BME280_humidity;BME280_pressure;Samples;Min_cycle;Max_cycle;Signal;HPM_P1;HPM_P2
2020/12/14 00:00:25;;;;;;;19.00;17.00;;;;;;;7.53;67.09;97703.75;8368195;28;20208;-78
2020/12/14 00:04:27;;;;;;;16.10;14.50;;;;;;;7.59;66.37;97721.56;8367255;28;20235;-79
2020/12/14 00:08:28;;;;;;;15.37;13.40;;;;;;;7.56;66.34;97730.25;8368214;28;20208;-78
2020/12/14 00:12:31;;;;;;;13.87;12.57;;;;;;;7.48;65.89;97721.09;8368189;28;20211;-79
2020/12/14 00:16:33;;;;;;;13.47;12.07;;;;;;;7.37;65.70;97742.94;8368137;28;20252;-78
2020/12/14 00:20:35;;;;;;;13.47;12.03;;;;;;;7.43;65.02;97752.19;8367817;28;20211;-79
2020/12/14 00:24:36;;;;;;;11.63;10.30;;;;;;;7.45;65.26;97750.41;8367793;28;20235;-78
2020/12/14 00:28:39;;;;;;;12.50;11.30;;;;;;;7.32;65.19;97752.56;8366993;28;20207;-78
2020/12/14 00:32:40;;;;;;;12.20;10.87;;;;;;;7.27;64.91;97731.25;8367615;28;20238;-79
2020/12/14 00:36:43;;;;;;;13.63;12.30;;;;;;;7.09;65.65;97725.03;8366788;28;20214;-79
2020/12/14 00:40:45;;;;;;;14.60;13.20;;;;;;;7.17;65.89;97711.88;8366407;28;20199;-79
2020/12/14 00:44:48;;;;;;;14.10;12.80;;;;;;;6.97;66.50;97713.41;8366936;28;20270;-78
2020/12/14 00:48:49;;;;;;;19.73;13.87;;;;;;;6.88;66.87;97708.56;8365911;28;20214;-79
2020/12/14 00:52:52;;;;;;;16.00;13.30;;;;;;;7.02;66.35;97703.78;8367249;28;20232;-79
2020/12/14 00:56:54;;;;;;;46.60;13.73;;;;;;;6.76;67.01;97685.78;8366771;28;20214;-79
2020/12/14 01:00:56;;;;;;;35.93;13.83;;;;;;;6.82;67.38;97703.63;8366429;28;20222;-79
2020/12/14 01:04:58;;;;;;;183.67;15.07;;;;;;;6.70;67.78;97709.16;8366391;28;20231;-79
2020/12/14 01:09:00;;;;;;;142.07;13.40;;;;;;;6.51;67.62;97711.50;8365608;28;20232;-79
2020/12/14 01:13:02;;;;;;;227.63;13.50;;;;;;;6.25;68.73;97718.31;8365697;28;20230;-78
2020/12/14 01:17:04;;;;;;;19.37;9.70;;;;;;;6.44;68.53;97732.28;8366462;28;20555;-78
2020/12/14 01:21:06;;;;;;;77.03;10.00;;;;;;;5.93;68.41;97747.53;8366179;28;20222;-78
2020/12/14 01:25:08;;;;;;;74.47;9.63;;;;;;;6.06;67.25;97738.59;8365417;28;20223;-77
2020/12/14 01:29:10;;;;;;;38.40;8.63;;;;;;;5.93;67.50;97748.34;8365458;28;20212;-78
2020/12/14 01:33:12;;;;;;;60.23;8.83;;;;;;;6.17;66.57;97731.41;8365006;28;20556;-78
2020/12/14 01:37:14;;;;;;;86.37;9.03;;;;;;;5.86;67.30;97710.88;8364945;28;20208;-78
2020/12/14 01:41:16;;;;;;;50.13;9.40;;;;;;;5.90;67.81;97730.44;8364549;28;20585;-79
2020/12/14 01:45:18;;;;;;;26.30;8.50;;;;;;;6.01;66.77;97749.00;8365942;28;20227;-78
2020/12/14 01:49:20;;;;;;;41.13;8.37;;;;;;;5.81;67.79;97759.84;8364681;28;20208;-78
2020/12/14 01:53:22;;;;;;;106.77;9.53;;;;;;;6.07;66.47;97761.69;8364767;28;20237;-78
2020/12/14 01:57:24;;;;;;;64.13;8.07;;;;;;;5.94;67.22;97749.19;8365034;28;20215;-78
2020/12/14 02:01:26;;;;;;;17.10;8.00;;;;;;;6.17;66.26;97743.41;8369034;28;20203;-78
2020/12/14 02:05:28;;;;;;;41.50;8.10;;;;;;;6.21;66.12;97750.16;8371682;28;20239;-78
2020/12/14 02:09:30;;;;;;;55.10;9.53;;;;;;;6.03;66.47;97748.97;8370492;28;20210;-78
2020/12/14 02:13:32;;;;;;;59.30;8.93;;;;;;;5.92;66.99;97743.25;8371099;28;20226;-78
2020/12/14 02:17:34;;;;;;;63.17;9.00;;;;;;;5.78;66.44;97739.38;8370270;28;20203;-78
2020/12/14 02:21:37;;;;;;;59.47;8.80;;;;;;;5.49;67.74;97746.16;8370741;28;20210;-78
2020/12/14 02:25:40;;;;;;;54.97;8.93;;;;;;;5.31;68.33;97740.69;8370984;28;20242;-78
2020/12/14 02:29:43;;;;;;;103.90;9.00;;;;;;;4.71;69.92;97725.09;8370154;28;20203;-78
2020/12/14 02:33:44;;;;;;;139.53;10.43;;;;;;;4.82;69.68;97727.41;8370232;28;20208;-78
2020/12/14 02:37:46;;;;;;;53.73;9.27;;;;;;;4.93;69.55;97715.16;8372060;28;20207;-78
2020/12/14 02:41:49;;;;;;;32.53;9.30;;;;;;;5.34;69.00;97720.06;8370300;28;20215;-78
2020/12/14 02:45:50;;;;;;;38.97;9.20;;;;;;;5.12;69.90;97719.78;8369978;28;20637;-78
2020/12/14 02:49:52;;;;;;;79.83;10.60;;;;;;;5.23;68.63;97713.47;8369643;28;20285;-78
2020/12/14 02:53:54;;;;;;;201.93;12.13;;;;;;;5.06;69.19;97710.53;8369231;28;20219;-78
2020/12/14 02:57:57;;;;;;;195.67;12.30;;;;;;;5.07;69.75;97707.91;8369018;28;20212;-78
2020/12/14 03:01:58;;;;;;;23.33;9.87;;;;;;;5.01;69.80;97707.25;8370175;28;20235;-78
2020/12/14 03:06:00;;;;;;;106.77;11.20;;;;;;;5.25;68.15;97688.63;8369405;28;20235;-78
2020/12/14 03:10:02;;;;;;;16.23;10.33;;;;;;;5.31;68.39;97685.03;8368839;28;20203;-78
2020/12/14 03:14:05;;;;;;;67.63;11.00;;;;;;;4.97;69.48;97692.78;8368696;28;20212;-78
2020/12/14 03:18:07;;;;;;;66.57;10.53;;;;;;;5.04;69.45;97691.75;8369016;28;20207;-78
2020/12/14 03:22:09;;;;;;;11.17;9.70;;;;;;;5.21;68.98;97696.44;8369087;28;20555;-78
2020/12/14 03:26:14;;;;;;;345.20;16.60;;;;;;;4.54;70.15;97706.72;8368918;28;20220;-78
2020/12/14 03:30:17;;;;;;;270.60;14.13;;;;;;;4.78;69.69;97712.94;8369196;28;20188;-78
2020/12/14 03:34:18;;;;;;;39.23;10.93;;;;;;;4.98;69.61;97704.75;8368944;28;20211;-79
2020/12/14 03:38:20;;;;;;;69.47;10.90;;;;;;;4.67;70.52;97695.28;8368150;28;20204;-78
2020/12/14 03:42:22;;;;;;;27.17;9.80;;;;;;;4.72;70.24;97695.16;8368759;28;20200;-79
2020/12/14 03:46:26;;;;;;;9.83;8.97;;;;;;;4.92;69.88;97692.09;8369503;28;20219;-78
2020/12/14 03:50:28;;;;;;;186.43;13.03;;;;;;;4.61;70.25;97695.44;8367489;28;20259;-78
2020/12/14 03:54:30;;;;;;;29.93;10.30;;;;;;;4.72;70.77;97702.84;8367789;28;20235;-78
2020/12/14 03:58:32;;;;;;;68.73;11.07;;;;;;;4.60;70.81;97711.69;8368488;28;20200;-78
2020/12/14 04:02:34;;;;;;;31.10;9.83;;;;;;;4.56;70.93;97715.22;8368019;28;20554;-78
2020/12/14 04:06:36;;;;;;;58.67;10.57;;;;;;;4.05;73.14;97709.53;8367062;28;20596;-78
2020/12/14 04:10:38;;;;;;;122.10;12.37;;;;;;;4.16;72.05;97721.28;8367977;28;20650;-78
2020/12/14 04:14:39;;;;;;;24.70;9.83;;;;;;;4.55;70.96;97716.94;8367449;28;20557;-78
2020/12/14 04:18:42;;;;;;;32.07;10.57;;;;;;;4.62;70.61;97707.38;8367207;28;20548;-77
2020/12/14 04:22:44;;;;;;;30.33;10.33;;;;;;;4.79;70.10;97701.81;8366528;28;20200;-78
2020/12/14 04:26:51;;;;;;;9.93;9.03;;;;;;;4.81;70.31;97721.41;8366672;28;20223;-78
2020/12/14 04:30:53;;;;;;;21.93;9.27;;;;;;;4.71;70.24;97714.84;8366172;28;20188;-77
2020/12/14 04:34:56;;;;;;;19.20;9.13;;;;;;;4.42;70.66;97720.69;8366295;28;20647;-78
2020/12/14 04:38:57;;;;;;;9.70;8.67;;;;;;;4.60;70.49;97721.94;8368890;28;20210;-79
2020/12/14 04:43:00;;;;;;;89.70;15.63;;;;;;;4.30;69.87;97725.22;8367329;28;20203;-79
2020/12/14 04:47:02;;;;;;;13.20;9.57;;;;;;;4.65;69.43;97720.97;8365952;28;20199;-78
2020/12/14 04:51:04;;;;;;;23.90;9.13;;;;;;;4.54;69.12;97710.13;8365625;28;20236;-79
2020/12/14 04:55:07;;;;;;;13.03;9.33;;;;;;;4.72;69.08;97723.38;8368263;28;20199;-78
2020/12/14 04:59:09;;;;;;;9.53;8.47;;;;;;;4.83;68.73;97732.47;8366128;28;20208;-78
2020/12/14 05:03:11;;;;;;;10.07;9.17;;;;;;;5.12;68.01;97730.06;8365191;28;20219;-78
2020/12/14 05:07:15;;;;;;;9.53;8.63;;;;;;;5.11;67.66;97736.91;8365340;28;20230;-79
2020/12/14 05:11:32;;;;;;;9.13;8.30;;;;;;;5.37;67.80;97753.34;8365122;28;20207;-79
2020/12/14 05:15:40;;;;;;;8.23;7.50;;;;;;;5.49;67.35;97750.47;8365335;28;20188;-78
2020/12/14 05:19:41;;;;;;;9.57;8.67;;;;;;;5.50;66.98;97747.00;8365161;28;20192;-78
2020/12/14 05:23:44;;;;;;;9.77;8.83;;;;;;;5.59;66.88;97743.34;8364999;28;20246;-78
2020/12/14 05:27:46;;;;;;;9.63;8.73;;;;;;;5.58;66.62;97732.22;8365781;28;20192;-78
2020/12/14 05:32:00;;;;;;;9.60;8.67;;;;;;;5.70;66.40;97728.47;8365930;28;20690;-77
2020/12/14 05:36:01;;;;;;;8.90;8.13;;;;;;;5.51;67.24;97738.41;8370423;28;20250;-77
2020/12/14 05:40:10;;;;;;;9.77;8.77;;;;;;;5.48;67.16;97733.34;8372162;28;20227;-77
2020/12/14 05:44:11;;;;;;;7.80;7.10;;;;;;;5.65;66.67;97736.31;8372912;28;20212;-77
2020/12/14 05:48:26;;;;;;;8.83;7.80;;;;;;;5.58;66.84;97741.66;8372497;28;20223;-78
2020/12/14 05:52:31;;;;;;;9.37;8.57;;;;;;;5.33;68.47;97749.19;8370491;28;20230;-78
2020/12/14 05:56:34;;;;;;;8.40;7.70;;;;;;;5.49;67.47;97738.47;8371021;28;20238;-78
2020/12/14 06:00:36;;;;;;;8.43;7.63;;;;;;;5.65;67.10;97727.75;8371929;28;20200;-78
2020/12/14 06:04:38;;;;;;;9.30;8.40;;;;;;;5.71;67.30;97737.84;8372826;28;20239;-78
2020/12/14 06:09:05;;;;;;;10.40;9.43;;;;;;;4.69;70.87;97726.88;8372110;28;20243;-77
2020/12/14 06:13:08;;;;;;;9.23;8.33;;;;;;;5.46;68.54;97730.00;8371341;28;20192;-77
2020/12/14 06:17:10;;;;;;;9.30;8.50;;;;;;;5.36;68.70;97731.97;8371492;28;20257;-77
2020/12/14 06:21:16;;;;;;;9.10;8.30;;;;;;;5.46;67.86;97710.31;8371489;28;20222;-78
2020/12/14 06:25:23;;;;;;;9.60;8.80;;;;;;;5.33;69.03;97715.81;8371421;28;20674;-79
2020/12/14 06:29:30;;;;;;;8.43;7.73;;;;;;;5.52;68.53;97709.28;8371476;28;20207;-78
2020/12/14 06:33:33;;;;;;;8.37;7.57;;;;;;;5.78;67.64;97718.81;8368723;28;20226;-78
2020/12/14 06:37:49;;;;;;;9.10;8.30;;;;;;;5.73;67.91;97717.25;8370059;28;20226;-79
2020/12/14 06:41:51;;;;;;;10.00;9.00;;;;;;;5.39;69.28;97716.50;8370394;28;20214;-78
2020/12/14 06:45:56;;;;;;;9.63;8.73;;;;;;;5.46;69.35;97710.31;8369535;28;20435;-78
2020/12/14 06:50:28;;;;;;;10.73;9.13;;;;;;;5.21;69.81;97711.84;8370064;28;20710;-78
2020/12/14 06:54:40;;;;;;;9.67;8.77;;;;;;;5.41;69.73;97706.19;8370365;28;20546;-78
2020/12/14 06:58:43;;;;;;;10.23;9.07;;;;;;;5.32;70.21;97702.13;8370493;28;20215;-78
2020/12/14 07:02:45;;;;;;;9.90;9.00;;;;;;;5.48;69.52;97703.41;8371670;28;20558;-79
2020/12/14 07:06:48;;;;;;;9.67;8.77;;;;;;;5.32;69.92;97709.00;8403074;28;20231;-79
2020/12/14 07:11:09;;;;;;;10.77;9.67;;;;;;;5.74;69.08;97712.06;8403816;28;20235;-78
2020/12/14 07:15:24;;;;;;;9.20;8.37;;;;;;;6.00;68.08;97707.94;8402677;28;20529;-79
2020/12/14 07:19:37;;;;;;;12.90;9.03;;;;;;;7.94;84.69;97709.97;8405189;28;20230;-80
2020/12/14 07:23:40;;;;;;;10.07;8.33;;;;;;;8.25;64.99;97706.19;8410460;28;20223;-80
2020/12/14 07:27:41;;;;;;;10.33;9.23;;;;;;;7.00;65.24;97710.72;8409236;28;20210;-80
2020/12/14 07:31:43;;;;;;;9.00;8.00;;;;;;;6.95;66.83;97702.31;8410372;28;20214;-80
2020/12/14 07:35:46;;;;;;;10.20;9.20;;;;;;;7.08;66.18;97712.19;8410279;28;20207;-78
2020/12/14 07:39:47;;;;;;;10.77;9.60;;;;;;;6.63;66.88;97723.97;8387853;28;20682;-79
2020/12/14 07:43:53;;;;;;;10.30;9.40;;;;;;;6.58;67.13;97729.25;8370021;28;20250;-79
2020/12/14 07:47:55;;;;;;;9.93;9.03;;;;;;;6.66;66.23;97731.59;8368854;28;20635;-79
2020/12/14 07:52:02;;;;;;;9.53;8.73;;;;;;;6.72;67.00;97730.53;8367775;28;20239;-79
2020/12/14 07:56:04;;;;;;;10.37;9.37;;;;;;;6.75;67.29;97735.59;8368357;28;20250;-79
2020/12/14 08:00:07;;;;;;;11.93;10.63;;;;;;;6.76;66.55;97738.13;8369360;28;20200;-79
2020/12/14 08:04:09;;;;;;;11.60;10.40;;;;;;;6.46;67.14;97743.34;8367831;28;20599;-78
2020/12/14 08:08:12;;;;;;;10.50;9.60;;;;;;;6.49;67.74;97741.56;8366433;28;20199;-79
2020/12/14 08:12:14;;;;;;;12.03;10.73;;;;;;;6.63;67.74;97744.56;8367687;28;20214;-79
2020/12/14 08:16:17;;;;;;;11.20;10.13;;;;;;;6.81;66.90;97751.66;8367581;28;20224;-79
2020/12/14 08:20:27;;;;;;;10.67;9.67;;;;;;;6.79;66.58;97748.31;8368628;28;20207;-80
2020/12/14 08:24:30;;;;;;;11.23;10.23;;;;;;;6.71;67.31;97759.75;8367528;28;20224;-78
2020/12/14 08:28:35;;;;;;;10.47;9.47;;;;;;;6.76;67.13;97761.28;8368129;28;20191;-78
2020/12/14 08:32:37;;;;;;;11.80;10.60;;;;;;;6.79;67.28;97761.19;8367599;28;20207;-79
2020/12/14 08:36:39;;;;;;;11.13;10.10;;;;;;;6.93;67.45;97762.47;8365616;28;20710;-79
2020/12/14 08:40:51;;;;;;;10.83;9.73;;;;;;;6.92;67.26;97765.94;8367188;28;20211;-79
2020/12/14 08:45:06;;;;;;;10.60;9.70;;;;;;;6.81;67.66;97771.44;8366821;28;20219;-79
2020/12/14 08:49:08;;;;;;;11.20;10.10;;;;;;;6.92;67.55;97766.78;8367850;28;20229;-79
2020/12/14 08:53:09;;;;;;;9.50;8.60;;;;;;;6.59;67.60;97779.84;8367459;28;20563;-78
2020/12/14 08:57:23;;;;;;;9.73;8.90;;;;;;;6.86;67.23;97772.13;8366652;28;20204;-79
2020/12/14 09:01:27;;;;;;;9.20;8.40;;;;;;;6.70;67.95;97776.94;8367078;28;20193;-79
2020/12/14 09:05:33;;;;;;;9.77;8.77;;;;;;;6.49;68.13;97775.84;8366531;28;20239;-78
2020/12/14 09:09:37;;;;;;;9.83;8.83;;;;;;;6.57;68.50;97779.06;8366677;28;20195;-79
2020/12/14 09:13:39;;;;;;;9.35;8.55;;;;;;;6.54;66.94;97775.72;8365892;28;20417;-78
2020/12/14 09:17:42;;;;;;;8.37;7.60;;;;;;;6.65;67.48;97789.09;8367271;28;20200;-79
2020/12/14 09:21:44;;;;;;;7.50;6.83;;;;;;;6.75;66.97;97789.66;8368269;28;20294;-79
2020/12/14 09:25:46;;;;;;;7.73;7.07;;;;;;;6.65;66.97;97783.97;8368727;28;20662;-78
2020/12/14 09:29:49;;;;;;;8.23;7.43;;;;;;;6.19;67.88;97793.09;8366517;28;20294;-79
2020/12/14 09:33:51;;;;;;;7.37;6.77;;;;;;;6.46;67.11;97779.38;8367759;28;20658;-78
2020/12/14 09:37:52;;;;;;;7.20;6.60;;;;;;;6.48;67.36;97781.91;8366043;28;20207;-78
2020/12/14 09:41:56;;;;;;;7.70;7.07;;;;;;;6.14;67.91;97785.47;8366142;28;20192;-78
2020/12/14 09:45:59;;;;;;;7.87;7.17;;;;;;;6.50;66.83;97774.97;8365585;28;20216;-78
2020/12/14 09:50:01;;;;;;;8.27;7.27;;;;;;;6.26;67.70;97776.56;8365082;28;20228;-79
2020/12/14 09:54:04;;;;;;;8.40;7.60;;;;;;;6.44;67.82;97791.44;8366085;28;20200;-80
2020/12/14 09:58:05;;;;;;;8.73;7.93;;;;;;;6.71;67.29;97798.38;8366006;28;20577;-79
2020/12/14 10:02:08;;;;;;;8.73;7.97;;;;;;;6.83;66.43;97795.38;8366368;28;20227;-79
2020/12/14 10:06:11;;;;;;;9.23;7.97;;;;;;;6.84;66.88;97791.94;8365816;28;20228;-79
2020/12/14 10:10:13;;;;;;;8.73;8.03;;;;;;;6.79;66.67;97784.34;8365917;28;20605;-79
2020/12/14 10:14:14;;;;;;;8.27;7.57;;;;;;;6.79;66.53;97775.78;8364991;28;20207;-79
2020/12/14 10:18:17;;;;;;;7.83;7.20;;;;;;;6.84;67.02;97767.03;8366146;28;20663;-79
2020/12/14 10:22:19;;;;;;;8.90;8.13;;;;;;;6.67;67.36;97774.44;8369930;28;20195;-79
2020/12/14 10:26:21;;;;;;;8.33;7.50;;;;;;;6.64;66.86;97767.69;8371335;28;20238;-79
2020/12/14 10:30:23;;;;;;;8.20;7.53;;;;;;;6.80;66.46;97757.72;8371788;28;20239;-79
2020/12/14 10:34:25;;;;;;;8.67;7.93;;;;;;;6.58;67.35;97757.56;8372104;28;20208;-78
2020/12/14 10:38:27;;;;;;;8.33;7.53;;;;;;;6.60;67.59;97762.66;8371318;28;20200;-78
2020/12/14 10:42:29;;;;;;;8.63;7.93;;;;;;;6.43;68.25;97760.63;8370444;28;20235;-79
2020/12/14 10:46:30;;;;;;;7.80;7.10;;;;;;;6.79;67.58;97763.75;8370471;28;20246;-79
2020/12/14 10:50:33;;;;;;;9.33;8.43;;;;;;;6.71;67.38;97768.31;8370557;28;20232;-78
2020/12/14 10:54:35;;;;;;;8.93;8.17;;;;;;;6.78;67.19;97758.69;8369748;28;20211;-79
2020/12/14 10:58:37;;;;;;;8.83;8.03;;;;;;;6.79;66.62;97766.31;8370350;28;20208;-79
2020/12/14 11:02:39;;;;;;;10.27;7.70;;;;;;;6.84;66.38;97756.72;8369441;28;20210;-79
2020/12/14 11:06:42;;;;;;;8.23;7.53;;;;;;;6.81;66.49;97761.13;8369485;28;20609;-79
2020/12/14 11:10:44;;;;;;;8.17;7.47;;;;;;;7.00;66.24;97758.81;8369469;28;20590;-79
2020/12/14 11:14:46;;;;;;;8.40;7.60;;;;;;;7.00;66.97;97766.53;8368920;28;20263;-79
2020/12/14 11:18:48;;;;;;;8.00;7.40;;;;;;;6.64;67.18;97762.53;8369860;28;20204;-79
2020/12/14 11:22:59;;;;;;;8.50;7.63;;;;;;;6.79;67.22;97758.59;8369025;28;20189;-79
2020/12/14 11:27:01;;;;;;;8.70;7.50;;;;;;;7.06;66.12;97756.00;8370717;28;20227;-79
2020/12/14 11:31:04;;;;;;;7.80;7.10;;;;;;;7.08;66.32;97753.38;8368737;28;20546;-79
2020/12/14 11:35:06;;;;;;;7.57;6.97;;;;;;;7.11;65.44;97745.56;8367884;28;20203;-78
2020/12/14 11:39:08;;;;;;;8.20;7.40;;;;;;;6.84;66.25;97740.47;8368618;28;20199;-79
2020/12/14 11:43:10;;;;;;;8.27;7.50;;;;;;;7.51;64.42;97739.03;8368695;28;20414;-78
2020/12/14 11:47:19;;;;;;;10.87;7.60;;;;;;;7.18;65.83;97744.47;8367825;28;20218;-79
2020/12/14 11:51:21;;;;;;;9.73;7.27;;;;;;;7.27;65.00;97730.44;8367348;28;20242;-79
2020/12/14 11:55:23;;;;;;;7.70;7.00;;;;;;;7.15;65.71;97739.41;8367278;28;20211;-79
2020/12/14 11:59:25;;;;;;;7.63;6.87;;;;;;;7.56;64.50;97750.03;8366387;28;20793;-79
2020/12/14 12:03:27;;;;;;;7.50;6.80;;;;;;;7.36;65.24;97746.41;8375277;28;20191;-79
2020/12/14 12:07:29;;;;;;;7.37;6.67;;;;;;;7.27;65.63;97748.47;8401650;28;20223;-78
2020/12/14 12:11:33;;;;;;;9.50;6.90;;;;;;;7.50;64.56;97738.22;8402336;28;20214;-79
2020/12/14 12:15:35;;;;;;;7.00;6.40;;;;;;;7.38;64.78;97738.63;8402490;28;20215;-79
2020/12/14 12:19:37;;;;;;;6.97;6.27;;;;;;;7.40;64.65;97740.25;8403010;28;20271;-79
2020/12/14 12:23:39;;;;;;;6.90;6.30;;;;;;;7.62;65.06;97732.59;8406140;28;20242;-80
2020/12/14 12:27:42;;;;;;;7.53;6.03;;;;;;;7.75;64.14;97729.56;8406014;28;20226;-79
2020/12/14 12:31:51;;;;;;;5.80;5.30;;;;;;;7.51;64.22;97729.56;8375153;28;20211;-79
2020/12/14 12:36:04;;;;;;;6.00;5.40;;;;;;;7.49;63.94;97718.47;8370395;28;20212;-79
2020/12/14 12:40:08;;;;;;;7.00;5.90;;;;;;;7.57;63.92;97713.88;8368786;28;20195;-79
2020/12/14 12:44:10;;;;;;;6.00;5.50;;;;;;;7.65;63.47;97713.59;8368574;28;20224;-78
2020/12/14 12:48:12;;;;;;;6.70;6.10;;;;;;;7.55;64.02;97701.94;8368847;28;20233;-79
2020/12/14 12:52:14;;;;;;;6.10;5.60;;;;;;;7.56;64.60;97708.81;8374699;28;20235;-79
2020/12/14 12:56:16;;;;;;;6.50;5.90;;;;;;;7.54;64.55;97710.56;8356439;28;20214;-79
2020/12/14 13:00:18;;;;;;;6.20;5.60;;;;;;;7.55;64.33;97709.69;8371646;28;20631;-79
2020/12/14 13:04:20;;;;;;;6.30;5.80;;;;;;;7.60;64.81;97706.03;8372645;28;20235;-79
2020/12/14 13:08:22;;;;;;;6.57;5.80;;;;;;;7.59;64.46;97700.94;8373177;28;20204;-79
2020/12/14 13:12:25;;;;;;;7.53;6.00;;;;;;;7.73;64.43;97703.00;8374423;28;20210;-79
2020/12/14 13:16:27;;;;;;;6.27;5.77;;;;;;;7.60;64.77;97706.03;8372761;28;20234;-78
2020/12/14 13:20:29;;;;;;;6.53;5.67;;;;;;;7.62;64.74;97701.66;8373983;28;20215;-79
2020/12/14 13:24:31;;;;;;;6.57;5.90;;;;;;;7.72;64.41;97701.34;8372354;28;20235;-79
2020/12/14 13:28:33;;;;;;;6.50;5.80;;;;;;;7.83;64.37;97704.34;8372310;28;20211;-79
2020/12/14 13:32:35;;;;;;;7.47;6.80;;;;;;;7.35;65.44;97702.66;8371615;28;20200;-79
2020/12/14 13:36:40;;;;;;;6.50;5.90;;;;;;;7.38;65.77;97705.13;8376664;28;20210;-79
2020/12/14 13:40:42;;;;;;;7.37;6.67;;;;;;;7.33;66.13;97707.88;8378455;28;20199;-79
2020/12/14 13:44:45;;;;;;;7.57;6.73;;;;;;;7.10;65.81;97708.69;8372762;28;20249;-79
2020/12/14 13:48:47;;;;;;;7.00;6.33;;;;;;;7.17;65.81;97712.72;8367293;28;20199;-78
2020/12/14 13:52:50;;;;;;;7.03;6.43;;;;;;;7.15;65.62;97713.66;8369501;28;20322;-79
2020/12/14 13:56:52;;;;;;;6.33;5.80;;;;;;;7.17;65.40;97715.28;8373441;28;20204;-79
2020/12/14 14:00:53;;;;;;;6.10;5.50;;;;;;;6.96;66.51;97713.47;8376197;28;20523;-79
2020/12/14 14:04:56;;;;;;;6.53;6.03;;;;;;;7.41;65.43;97715.34;8373805;28;20643;-78
2020/12/14 14:08:58;;;;;;;7.10;6.40;;;;;;;7.55;64.78;97713.09;8372947;28;20662;-78
2020/12/14 14:13:00;;;;;;;9.37;6.80;;;;;;;7.36;65.06;97715.50;8371788;28;20210;-78
2020/12/14 14:17:02;;;;;;;7.93;7.13;;;;;;;7.18;65.13;97714.41;8370749;28;20215;-78
2020/12/14 14:21:05;;;;;;;6.90;6.30;;;;;;;7.31;64.95;97713.97;8369833;28;20246;-79
2020/12/14 14:25:07;;;;;;;7.17;6.57;;;;;;;7.17;65.98;97714.47;8370061;28;20223;-79
2020/12/14 14:29:08;;;;;;;8.17;7.57;;;;;;;7.15;65.96;97729.97;8377734;28;20207;-79
2020/12/14 14:33:10;;;;;;;8.93;8.03;;;;;;;7.31;66.47;97730.28;8376158;28;20203;-78
2020/12/14 14:37:14;;;;;;;7.87;7.27;;;;;;;7.30;65.57;97718.28;8369831;28;20254;-78
2020/12/14 14:41:15;;;;;;;8.57;7.80;;;;;;;7.51;65.28;97732.13;8370966;28;20207;-78
2020/12/14 14:45:17;;;;;;;8.00;7.30;;;;;;;7.27;65.61;97727.84;8369236;28;20235;-78
2020/12/14 14:49:33;;;;;;;9.80;8.13;;;;;;;7.19;66.63;97710.09;8369640;28;20246;-78
2020/12/14 14:53:36;;;;;;;10.40;8.70;;;;;;;7.24;66.53;97697.91;8370051;28;20289;-78
2020/12/14 14:57:38;;;;;;;8.83;7.77;;;;;;;7.19;67.03;97703.19;8370102;28;20211;-78
2020/12/14 15:01:40;;;;;;;10.80;8.07;;;;;;;7.14;66.93;97710.25;8369753;28;20210;-78
2020/12/14 15:05:42;;;;;;;8.93;8.23;;;;;;;7.09;66.82;97707.00;8368557;28;20357;-78
2020/12/14 15:09:45;;;;;;;9.30;8.50;;;;;;;6.95;67.34;97706.63;8367850;28;20245;-78
2020/12/14 15:13:47;;;;;;;8.17;7.47;;;;;;;6.88;67.98;97706.00;8374457;28;20203;-78
2020/12/14 15:17:49;;;;;;;10.40;9.27;;;;;;;6.96;67.84;97701.41;8373765;28;20203;-77
2020/12/14 15:21:50;;;;;;;10.13;9.13;;;;;;;6.73;67.88;97701.34;8373490;28;20207;-78
2020/12/14 15:25:53;;;;;;;11.50;9.80;;;;;;;6.41;68.33;97696.34;8373504;28;20234;-78
2020/12/14 15:29:55;;;;;;;13.23;10.17;;;;;;;6.39;68.60;97705.84;8373887;28;20208;-78
2020/12/14 15:33:56;;;;;;;14.37;9.67;;;;;;;6.60;68.12;97698.34;8374673;28;20219;-78
2020/12/14 15:37:58;;;;;;;11.67;10.63;;;;;;;6.34;68.68;97707.75;8373372;28;20207;-78
2020/12/14 15:42:00;;;;;;;15.27;11.20;;;;;;;6.20;69.17;97695.28;8372378;28;20200;-78
2020/12/14 15:46:02;;;;;;;11.90;10.70;;;;;;;6.44;67.68;97690.28;8371468;28;20314;-78
2020/12/14 15:50:04;;;;;;;13.43;12.23;;;;;;;6.00;68.96;97693.34;8362255;28;20240;-78
2020/12/14 15:54:06;;;;;;;12.10;11.10;;;;;;;6.31;68.36;97692.41;8365823;28;20591;-79
2020/12/14 15:58:10;;;;;;;12.90;11.60;;;;;;;6.17;68.57;97704.84;8367193;28;20207;-79
2020/12/14 16:02:14;;;;;;;12.90;11.80;;;;;;;6.25;68.38;97693.44;8339574;28;20544;-79
2020/12/14 16:06:16;;;;;;;12.60;11.43;;;;;;;5.84;69.45;97689.50;8357855;28;20238;-78
2020/12/14 16:10:18;;;;;;;13.13;12.03;;;;;;;6.00;69.01;97687.38;8365653;28;20231;-78
2020/12/14 16:14:21;;;;;;;12.60;11.30;;;;;;;6.16;68.80;97688.56;8368572;28;20615;-78
2020/12/14 16:18:23;;;;;;;13.53;12.23;;;;;;;5.84;69.47;97694.66;8366714;28;20211;-78
2020/12/14 16:22:24;;;;;;;11.73;10.63;;;;;;;6.27;68.42;97688.25;8366591;28;21059;-78
2020/12/14 16:26:27;;;;;;;12.20;11.00;;;;;;;6.06;68.26;97694.91;8365461;28;20263;-78
2020/12/14 16:30:30;;;;;;;10.90;10.00;;;;;;;6.06;68.80;97702.59;8381555;28;20227;-77
2020/12/14 16:34:32;;;;;;;12.07;10.53;;;;;;;5.99;68.59;97703.69;8366734;28;20204;-78
2020/12/14 16:38:34;;;;;;;11.40;10.30;;;;;;;5.99;68.58;97701.09;8362284;28;20199;-78
2020/12/14 16:42:36;;;;;;;11.67;10.57;;;;;;;5.81;69.29;97700.75;8334945;28;20224;-77
2020/12/14 16:46:38;;;;;;;12.93;10.60;;;;;;;5.95;68.99;97696.91;8364908;28;20223;-78
2020/12/14 16:50:40;;;;;;;11.60;10.50;;;;;;;5.80;69.48;97698.22;8366178;28;20285;-78
2020/12/14 16:54:42;;;;;;;12.37;10.60;;;;;;;5.81;69.57;97694.75;8349156;28;20200;-78
2020/12/14 16:58:46;;;;;;;11.37;10.17;;;;;;;5.77;69.78;97690.56;8357749;28;20204;-78
2020/12/14 17:02:50;;;;;;;11.00;9.90;;;;;;;5.54;70.47;97698.94;8365725;28;20643;-78
2020/12/14 17:06:55;;;;;;;12.10;10.80;;;;;;;5.68;70.09;97699.41;8353191;28;20219;-78
2020/12/14 17:10:56;;;;;;;11.17;10.07;;;;;;;5.65;70.13;97695.22;8351542;28;20200;-78
2020/12/14 17:14:58;;;;;;;12.70;10.23;;;;;;;5.80;69.71;97683.63;8363989;28;20219;-78
2020/12/14 17:19:01;;;;;;;10.77;9.67;;;;;;;5.76;69.25;97683.78;8365168;28;20224;-78
2020/12/14 17:23:02;;;;;;;11.27;10.17;;;;;;;5.44;70.46;97693.25;8358609;28;20231;-78
2020/12/14 17:27:04;;;;;;;11.77;9.90;;;;;;;5.77;69.37;97690.56;8362763;28;20227;-78
2020/12/14 17:31:06;;;;;;;11.83;10.67;;;;;;;5.83;68.81;97698.13;8363145;28;20670;-78
2020/12/14 17:35:09;;;;;;;10.30;9.27;;;;;;;5.68;69.64;97707.94;8370597;28;20196;-79
2020/12/14 17:39:11;;;;;;;11.73;9.47;;;;;;;5.79;69.47;97715.38;8355428;28;20204;-79
2020/12/14 17:43:12;;;;;;;11.30;10.10;;;;;;;5.68;69.41;97713.09;8363907;28;20207;-78
2020/12/14 17:47:14;;;;;;;10.53;9.53;;;;;;;5.78;69.31;97711.09;8365558;28;20258;-78
2020/12/14 17:51:17;;;;;;;10.00;9.00;;;;;;;5.68;69.44;97707.94;8362792;28;20283;-78
2020/12/14 17:55:18;;;;;;;10.10;9.07;;;;;;;5.62;69.98;97712.44;8343215;28;20234;-78
2020/12/14 17:59:22;;;;;;;11.53;10.43;;;;;;;5.87;68.92;97692.84;8366354;28;20239;-78
2020/12/14 18:03:24;;;;;;;11.13;10.03;;;;;;;5.80;69.16;97685.34;8365553;28;20215;-79
2020/12/14 18:07:27;;;;;;;10.10;9.10;;;;;;;5.70;69.58;97681.38;8391385;28;20224;-79
2020/12/14 18:11:29;;;;;;;10.73;9.63;;;;;;;5.91;68.72;97682.47;8368144;28;20246;-78
2020/12/14 18:15:30;;;;;;;11.60;10.40;;;;;;;5.86;68.70;97678.31;8365553;28;20218;-78
2020/12/14 18:19:32;;;;;;;12.97;10.73;;;;;;;5.81;69.01;97676.78;8359487;28;20295;-78
2020/12/14 18:23:35;;;;;;;13.00;10.90;;;;;;;5.74;69.21;97670.97;8337199;28;20211;-79
2020/12/14 18:27:36;;;;;;;11.67;10.50;;;;;;;5.82;69.12;97673.31;8364165;28;20242;-79
2020/12/14 18:31:38;;;;;;;15.60;11.97;;;;;;;5.84;68.83;97686.94;8363949;28;20196;-79
2020/12/14 21:26:59;;;;;;;13.87;12.30;;;;;;;5.90;68.09;97640.50;8364943;28;20208;-78
2020/12/14 21:31:01;;;;;;;13.00;11.63;;;;;;;5.82;68.20;97640.72;8364335;28;20569;-78
2020/12/14 21:35:04;;;;;;;13.43;12.13;;;;;;;5.80;68.39;97663.06;8364927;28;20631;-78
2020/12/14 21:39:07;;;;;;;12.47;11.23;;;;;;;5.96;67.84;97673.78;8365057;28;20250;-79
2020/12/14 21:43:09;;;;;;;12.40;11.20;;;;;;;5.84;68.00;97662.09;8365518;28;20203;-78
2020/12/14 21:47:10;;;;;;;12.37;11.20;;;;;;;5.87;67.80;97658.59;8365496;28;20228;-78
2020/12/14 21:51:15;;;;;;;14.23;12.40;;;;;;;5.74;68.49;97641.88;8365096;28;20262;-78
2020/12/14 21:55:17;;;;;;;13.40;12.10;;;;;;;5.64;68.76;97644.69;8365081;28;20210;-78